Time;durP1;ratioP1;P1;durP2;ratioP2;P2;SDS_P1;SDS_P2;PMS_P1;PMS_P2;Temp;Humidity;BMP_temperature;BMP_pressure;BME280_temperature;BME280_humidity;BME280_pressure;Samples;Min_cycle;Max_cycle;Signal;HPM_P1;HPM_P2
2021/05/27 02:47:47;;;;;;;;;0.00;0.00;;;;;17.76;41.82;98244.44;6279601;22;102888;-96
2021/05/27 02:50:26;;;;;;;;;0.33;0.00;;;;;17.83;41.68;98256.00;6282480;22;101319;-96
2021/05/27 02:53:00;;;;;;;;;0.00;0.00;;;;;17.85;42.31;98231.16;6300013;22;101830;-96
2021/05/27 02:55:37;;;;;;;;;0.00;0.00;;;;;17.81;42.44;98239.03;6278637;22;104026;-96
2021/05/27 02:58:08;;;;;;;;;1.00;1.00;;;;;17.81;42.19;98247.25;6273082;22;102306;-96
2021/05/27 03:00:47;;;;;;;;;0.00;0.00;;;;;17.84;41.93;98227.56;6198952;22;101311;-96
2021/05/27 03:03:22;;;;;;;;;0.67;0.67;;;;;17.86;42.24;98237.44;6273544;22;101865;-96
2021/05/27 03:05:58;;;;;;;;;0.00;0.00;;;;;17.82;41.90;98257.09;6293096;22;101928;-96
2021/05/27 03:08:40;;;;;;;;;1.33;0.00;;;;;17.87;42.16;98263.72;6250720;22;102014;-96
2021/05/27 03:11:13;;;;;;;;;0.00;0.00;;;;;17.78;42.14;98239.56;6275993;22;101621;-96
2021/05/27 03:13:47;;;;;;;;;1.00;1.00;;;;;17.88;41.64;98240.75;6250794;22;103607;-95
2021/05/27 03:16:18;;;;;;;;;0.00;0.00;;;;;17.79;42.14;98227.50;6276752;22;103626;-96
2021/05/27 03:18:49;;;;;;;;;1.00;0.33;;;;;17.80;41.35;98223.69;6224532;22;102035;-96
2021/05/27 03:21:16;;;;;;;;;0.00;0.00;;;;;17.83;42.05;98253.28;6230346;22;102368;-96
2021/05/27 03:23:46;;;;;;;;;0.00;0.00;;;;;17.83;41.65;98234.13;6227599;22;103244;-96
2021/05/27 03:26:14;;;;;;;;;0.33;0.00;;;;;17.82;41.90;98221.56;6232249;22;102326;-96
2021/05/27 03:28:42;;;;;;;;;1.00;0.00;;;;;17.86;41.71;98273.81;6228261;22;102215;-96
2021/05/27 03:31:10;;;;;;;;;0.00;0.00;;;;;17.79;41.89;98221.22;6206488;22;102255;-96
2021/05/27 03:33:38;;;;;;;;;1.00;1.00;;;;;17.88;42.13;98268.13;6207955;22;105444;-96
2021/05/27 03:36:06;;;;;;;;;0.00;0.00;;;;;17.83;41.98;98271.63;6289769;22;101892;-96
2021/05/27 03:38:34;;;;;;;;;0.00;0.00;;;;;17.81;41.72;98263.66;6232830;22;102258;-96
2021/05/27 03:41:03;;;;;;;;;0.00;0.00;;;;;17.85;41.89;98266.69;6260528;22;102647;-96
2021/05/27 03:43:31;;;;;;;;;0.00;0.00;;;;;17.80;42.20;98262.00;6252533;22;103633;-96
2021/05/27 03:46:00;;;;;;;;;0.00;0.00;;;;;17.81;41.92;98291.00;6242734;22;102387;-96
2021/05/27 03:48:28;;;;;;;;;0.00;0.00;;;;;17.78;41.55;98231.34;6225843;22;102079;-96
2021/05/27 03:50:56;;;;;;;;;0.00;0.00;;;;;17.77;41.77;98250.75;6246466;22;102843;-96
2021/05/27 03:53:24;;;;;;;;;0.00;0.00;;;;;17.78;42.08;98258.72;6218032;22;109726;-96
2021/05/27 03:55:52;;;;;;;;;0.00;0.00;;;;;17.80;42.03;98267.47;6222084;22;102071;-96
2021/05/27 04:01:06;;;;;;;;;0.00;0.00;;;;;17.80;42.02;98250.22;6256842;22;102341;-96
2021/05/27 04:09:27;;;;;;;;;0.00;0.00;;;;;17.80;41.72;98264.72;6149652;22;103352;-96
2021/05/27 04:12:45;;;;;;;;;0.67;0.00;;;;;17.78;41.97;98263.34;6200737;22;102129;-96
2021/05/27 04:15:19;;;;;;;;;1.00;0.67;;;;;17.77;41.61;98264.41;6216415;22;110414;-96
2021/05/27 04:17:32;;;;;;;;;0.00;0.00;;;;;17.74;42.09;98241.13;6182820;22;102633;-96
2021/05/27 04:20:04;;;;;;;;;0.00;0.00;;;;;17.74;42.30;98254.81;6126598;22;101960;-96
2021/05/27 04:22:57;;;;;;;;;0.00;0.00;;;;;17.75;41.45;98258.38;6149884;22;101781;-96
2021/05/27 04:25:26;;;;;;;;;0.00;0.00;;;;;17.73;41.84;98255.91;6132839;22;110021;-96
2021/05/27 04:27:54;;;;;;;;;0.00;0.00;;;;;17.78;41.46;98279.75;6152382;22;102160;-96
2021/05/27 04:30:26;;;;;;;;;0.00;0.00;;;;;17.81;42.34;98287.44;6174289;22;102367;-96
2021/05/27 04:33:08;;;;;;;;;0.00;0.00;;;;;17.73;42.54;98255.06;6112602;22;102216;-96
2021/05/27 04:35:44;;;;;;;;;0.00;0.00;;;;;17.78;42.35;98288.78;6066751;22;108353;-96
2021/05/27 04:38:15;;;;;;;;;0.00;0.00;;;;;17.81;42.48;98328.47;6172490;22;102038;-96
2021/05/27 04:40:46;;;;;;;;;0.00;0.00;;;;;17.76;41.98;98238.97;6197612;22;104283;-96
2021/05/27 04:43:16;;;;;;;;;0.00;0.00;;;;;17.72;42.26;98291.69;6179597;22;102238;-96
2021/05/27 04:45:44;;;;;;;;;1.00;0.00;;;;;17.76;42.42;98296.41;6194597;22;103625;-96
2021/05/27 04:48:15;;;;;;;;;2.00;0.00;;;;;17.77;42.54;98289.88;6198710;22;101906;-96
2021/05/27 04:50:45;;;;;;;;;0.00;0.00;;;;;17.70;42.63;98278.28;6204515;22;102446;-96
2021/05/27 04:53:13;;;;;;;;;0.00;0.00;;;;;17.72;42.47;98302.63;6227223;22;102373;-96
2021/05/27 04:55:41;;;;;;;;;1.00;0.00;;;;;17.64;42.43;98281.22;6210751;22;104333;-96
2021/05/27 04:58:09;;;;;;;;;0.00;0.00;;;;;17.73;42.57;98323.44;6206944;22;101988;-96
2021/05/27 05:00:39;;;;;;;;;0.33;0.00;;;;;17.59;41.76;98319.41;6120339;22;102677;-96
2021/05/27 05:03:07;;;;;;;;;0.00;0.00;;;;;17.58;42.79;98295.84;6100751;22;101968;-96
2021/05/27 05:05:37;;;;;;;;;0.00;0.00;;;;;17.72;41.84;98286.22;6130153;22;105704;-96
2021/05/27 05:08:07;;;;;;;;;0.00;0.00;;;;;17.73;42.10;98304.31;6210409;22;102008;-96
2021/05/27 05:10:40;;;;;;;;;0.00;0.00;;;;;17.72;42.58;98308.09;6126526;22;104687;-96
2021/05/27 05:13:08;;;;;;;;;0.00;0.00;;;;;17.77;42.36;98322.69;6045690;22;102844;-96
2021/05/27 05:15:40;;;;;;;;;0.00;0.00;;;;;17.72;41.92;98298.00;6134078;22;106834;-96
2021/05/27 05:18:19;;;;;;;;;0.00;0.00;;;;;17.75;42.22;98319.38;6114935;22;101912;-96
2021/05/27 05:21:00;;;;;;;;;0.00;0.00;;;;;17.74;42.01;98295.81;6056919;22;102276;-96
2021/05/27 05:23:28;;;;;;;;;0.00;0.00;;;;;17.71;42.42;98333.78;6153801;22;102133;-96
2021/05/27 05:25:59;;;;;;;;;0.00;0.00;;;;;17.69;42.33;98320.41;6154488;22;104080;-96
2021/05/27 05:28:29;;;;;;;;;0.33;0.00;;;;;17.71;42.07;98292.78;6241205;22;102375;-96
2021/05/27 05:30:57;;;;;;;;;0.00;0.00;;;;;17.71;42.64;98315.47;6032853;22;102437;-96
2021/05/27 05:33:26;;;;;;;;;0.00;0.00;;;;;17.74;42.50;98317.69;6141780;22;102112;-96
2021/05/27 05:35:55;;;;;;;;;0.00;0.00;;;;;17.80;42.08;98343.22;6151846;22;102237;-96
2021/05/27 05:38:26;;;;;;;;;0.00;0.00;;;;;17.74;42.33;98282.16;6144527;22;102043;-96
2021/05/27 05:40:59;;;;;;;;;0.00;0.00;;;;;17.73;42.25;98302.41;6169470;22;108318;-96
2021/05/27 05:43:27;;;;;;;;;0.00;0.00;;;;;17.75;41.91;98324.84;6112987;22;102093;-96
2021/05/27 05:45:59;;;;;;;;;0.00;0.00;;;;;17.84;42.45;98328.78;6094211;22;102739;-96
2021/05/27 05:48:27;;;;;;;;;0.00;0.00;;;;;17.84;42.11;98323.31;6069034;22;103385;-96
2021/05/27 05:51:00;;;;;;;;;0.00;0.00;;;;;17.83;41.82;98338.06;6102471;22;102334;-96
2021/05/27 05:53:29;;;;;;;;;0.00;0.00;;;;;17.76;41.74;98353.84;6159224;22;101861;-96
2021/05/27 05:56:06;;;;;;;;;0.00;0.00;;;;;17.80;42.78;98333.09;6180930;22;105058;-96
2021/05/27 05:58:37;;;;;;;;;0.00;0.00;;;;;17.80;42.56;98344.03;6203363;22;102011;-96
2021/05/27 06:01:06;;;;;;;;;0.00;0.00;;;;;17.84;42.03;98328.78;6161283;22;101960;-96
2021/05/27 06:03:34;;;;;;;;;0.00;0.00;;;;;17.79;42.38;98380.69;6068759;22;102232;-96
2021/05/27 06:06:09;;;;;;;;;0.00;0.00;;;;;17.81;42.24;98336.66;6010175;22;105561;-96
2021/05/27 06:08:36;;;;;;;;;0.00;0.00;;;;;17.82;42.58;98341.06;6133145;22;102139;-96
2021/05/27 06:11:12;;;;;;;;;0.00;0.00;;;;;17.79;41.76;98341.56;6147581;22;102090;-96
2021/05/27 06:13:50;;;;;;;;;0.00;0.00;;;;;17.79;42.96;98306.81;6068470;22;102101;-96
2021/05/27 06:16:24;;;;;;;;;0.00;0.00;;;;;17.83;42.21;98349.00;6007844;22;109810;-96
2021/05/27 06:18:54;;;;;;;;;0.00;0.00;;;;;17.68;41.88;98294.13;6163351;22;101747;-96
2021/05/27 06:21:23;;;;;;;;;0.00;0.00;;;;;17.84;42.85;98315.09;6125502;22;102328;-95
2021/05/27 06:23:51;;;;;;;;;0.00;0.00;;;;;17.84;43.02;98323.31;6239108;22;101929;-96
2021/05/27 06:26:20;;;;;;;;;1.00;1.00;;;;;17.90;42.35;98353.47;6120981;22;102394;-96
2021/05/27 06:28:56;;;;;;;;;0.00;0.00;;;;;17.89;42.94;98349.06;6085937;22;101943;-96
2021/05/27 06:31:24;;;;;;;;;0.00;0.00;;;;;17.85;42.61;98351.50;6181461;22;102199;-96
2021/05/27 06:33:52;;;;;;;;;0.00;0.00;;;;;17.90;42.63;98342.53;6194063;22;101691;-96
2021/05/27 06:36:21;;;;;;;;;0.00;0.00;;;;;17.89;42.40;98362.75;6171824;22;102250;-96
2021/05/27 06:38:49;;;;;;;;;0.00;0.00;;;;;17.90;42.13;98365.25;6187580;22;102607;-96
2021/05/27 06:41:22;;;;;;;;;0.00;0.00;;;;;17.87;42.32;98359.44;6066983;22;102110;-96
2021/05/27 06:44:00;;;;;;;;;0.00;0.00;;;;;17.89;42.99;98338.13;6118051;22;102608;-96
2021/05/27 06:46:31;;;;;;;;;0.00;0.00;;;;;17.87;42.33;98345.78;6168983;22;104359;-96
2021/05/27 06:49:01;;;;;;;;;0.00;0.00;;;;;17.90;42.72;98353.47;6179358;22;102168;-96
2021/05/27 06:51:33;;;;;;;;;0.00;0.00;;;;;17.90;42.60;98315.16;6207379;22;101894;-96
2021/05/27 06:54:05;;;;;;;;;0.33;0.00;;;;;17.95;42.72;98356.28;6160979;22;101819;-96
2021/05/27 06:56:33;;;;;;;;;0.00;0.00;;;;;17.91;42.97;98341.44;6190518;22;103177;-96
2021/05/27 06:59:04;;;;;;;;;0.00;0.00;;;;;17.92;42.87;98329.44;6036256;22;102476;-96
2021/05/27 07:01:33;;;;;;;;;0.00;0.00;;;;;17.92;42.70;98351.31;6088849;22;103379;-96
2021/05/27 07:04:03;;;;;;;;;0.00;0.00;;;;;17.89;43.21;98390.09;6088711;22;102450;-96
2021/05/27 07:06:31;;;;;;;;;0.00;0.00;;;;;17.95;42.57;98337.13;6172973;22;103224;-96
2021/05/27 07:09:00;;;;;;;;;0.33;0.00;;;;;17.96;42.97;98391.59;6174568;22;102185;-96
2021/05/27 07:11:28;;;;;;;;;0.00;0.00;;;;;17.96;42.84;98374.34;6221936;22;102065;-96
2021/05/27 07:13:56;;;;;;;;;0.00;0.00;;;;;17.95;43.17;98351.63;6231069;22;102612;-96
2021/05/27 07:16:27;;;;;;;;;0.00;0.00;;;;;17.95;42.98;98318.81;6190383;22;104569;-96
2021/05/27 07:18:55;;;;;;;;;1.00;0.00;;;;;17.97;43.59;98370.50;6248143;22;104251;-96
2021/05/27 07:21:23;;;;;;;;;0.00;0.00;;;;;18.00;43.74;98345.41;6159097;22;102227;-96
2021/05/27 07:23:51;;;;;;;;;0.00;0.00;;;;;18.00;43.70;98353.59;6238086;22;102069;-96
2021/05/27 07:26:19;;;;;;;;;2.00;0.00;;;;;18.01;43.28;98361.53;6225077;22;103503;-96
2021/05/27 07:28:48;;;;;;;;;0.00;0.00;;;;;17.97;43.26;98354.09;6153458;22;102058;-96
2021/05/27 07:31:19;;;;;;;;;0.00;0.00;;;;;18.01;43.86;98364.28;6226888;22;102056;-96
2021/05/27 07:33:47;;;;;;;;;0.00;0.00;;;;;18.02;43.42;98362.38;6206657;22;102557;-96
2021/05/27 07:36:16;;;;;;;;;0.00;0.00;;;;;17.90;43.37;98345.25;6204350;22;104396;-96
2021/05/27 07:38:47;;;;;;;;;0.00;0.00;;;;;18.01;43.36;98353.31;6147142;22;102541;-96
2021/05/27 07:41:15;;;;;;;;;0.00;0.00;;;;;18.00;43.46;98351.69;6228160;22;102129;-96
2021/05/27 07:43:43;;;;;;;;;0.67;0.00;;;;;18.02;43.60;98345.94;6216877;22;102565;-96
2021/05/27 07:46:11;;;;;;;;;0.00;0.00;;;;;18.02;43.23;98359.63;6181485;22;109433;-96
2021/05/27 07:48:40;;;;;;;;;0.33;0.00;;;;;17.99;43.42;98349.19;6217644;22;102605;-96
2021/05/27 07:51:09;;;;;;;;;0.67;0.00;;;;;18.03;43.21;98340.22;6236078;22;102182;-96
2021/05/27 07:53:36;;;;;;;;;1.00;0.67;;;;;18.05;43.18;98390.06;6194236;22;102259;-96
2021/05/27 07:56:05;;;;;;;;;0.00;0.00;;;;;18.04;43.62;98352.00;6232344;22;103030;-96
2021/05/27 07:58:35;;;;;;;;;0.00;0.00;;;;;18.05;43.44;98329.88;6196646;22;102016;-96
2021/05/27 08:01:04;;;;;;;;;0.00;0.00;;;;;18.05;43.07;98343.56;6188655;22;102389;-96
2021/05/27 08:03:33;;;;;;;;;0.00;0.00;;;;;18.06;43.95;98315.09;6171261;22;102174;-96
2021/05/27 08:06:01;;;;;;;;;0.00;0.00;;;;;18.11;43.85;98350.72;6227010;22;103790;-96
2021/05/27 08:08:29;;;;;;;;;0.00;0.00;;;;;18.07;43.89;98340.53;6219864;22;102300;-96
2021/05/27 08:10:57;;;;;;;;;0.00;0.00;;;;;18.11;43.66;98341.69;6176049;22;102165;-96
2021/05/27 08:13:28;;;;;;;;;0.00;0.00;;;;;18.11;43.52;98358.09;6180070;22;102017;-96
2021/05/27 08:15:56;;;;;;;;;0.00;0.00;;;;;17.98;43.57;98361.22;6233342;22;104398;-96
2021/05/27 08:18:26;;;;;;;;;0.00;0.00;;;;;18.14;42.98;98377.59;6140458;22;101965;-96
2021/05/27 08:20:55;;;;;;;;;0.33;0.00;;;;;18.12;43.49;98315.97;6142720;22;102401;-96
2021/05/27 08:23:23;;;;;;;;;0.67;0.00;;;;;18.14;43.54;98358.44;6155788;22;102009;-96
2021/05/27 08:25:52;;;;;;;;;0.00;0.00;;;;;18.05;43.35;98313.47;6158233;22;104384;-96
2021/05/27 08:28:20;;;;;;;;;1.00;0.00;;;;;18.15;43.65;98351.88;6178192;22;102153;-96
2021/05/27 08:30:52;;;;;;;;;0.00;0.00;;;;;18.17;43.87;98387.19;6201475;22;101798;-96
2021/05/27 08:33:21;;;;;;;;;0.00;0.00;;;;;18.19;43.39;98374.09;6198490;22;102226;-96
2021/05/27 08:35:49;;;;;;;;;0.00;0.00;;;;;18.21;43.66;98371.91;6210808;22;104400;-96
2021/05/27 08:38:17;;;;;;;;;0.00;0.00;;;;;18.19;43.27;98347.53;6220778;22;101995;-96
2021/05/27 08:40:46;;;;;;;;;0.67;0.00;;;;;18.21;43.69;98391.06;6204979;22;104227;-96
2021/05/27 08:43:17;;;;;;;;;0.00;0.00;;;;;18.23;43.38;98391.66;6115927;22;102219;-96
2021/05/27 08:45:47;;;;;;;;;0.00;0.00;;;;;18.29;43.69;98374.19;6162983;22;106100;-96
2021/05/27 08:48:19;;;;;;;;;0.33;0.00;;;;;18.22;43.68;98332.53;6191141;22;102223;-96
2021/05/27 08:50:48;;;;;;;;;0.00;0.00;;;;;18.23;43.91;98376.06;6161119;22;102565;-96
2021/05/27 08:53:16;;;;;;;;;0.00;0.00;;;;;18.21;43.41;98363.69;6188421;22;102160;-96
2021/05/27 08:55:45;;;;;;;;;1.00;0.00;;;;;18.23;43.07;98359.66;6248599;22;109947;-96
2021/05/27 08:58:14;;;;;;;;;0.00;0.00;;;;;18.29;43.39;98374.19;6230604;22;102491;-96
2021/05/27 09:00:42;;;;;;;;;0.00;0.00;;;;;18.24;43.21;98365.91;6200943;22;102217;-96
2021/05/27 09:03:10;;;;;;;;;0.00;0.00;;;;;18.26;43.81;98363.75;6219270;22;102013;-96
2021/05/27 09:05:38;;;;;;;;;0.00;0.00;;;;;18.27;43.45;98359.94;6245034;22;102652;-96
2021/05/27 09:08:09;;;;;;;;;1.00;0.00;;;;;18.27;43.53;98347.09;6183286;22;102467;-96
2021/05/27 09:10:43;;;;;;;;;1.00;0.00;;;;;18.36;43.41;98374.84;6199269;22;102358;-96
2021/05/27 09:13:13;;;;;;;;;1.00;0.00;;;;;18.32;43.36;98350.97;6235845;22;102156;-96
2021/05/27 09:15:49;;;;;;;;;0.00;0.00;;;;;18.35;43.71;98353.19;6214453;22;108258;-96
2021/05/27 09:18:31;;;;;;;;;0.00;0.00;;;;;18.33;43.93;98356.16;6176800;22;102308;-96
2021/05/27 09:21:02;;;;;;;;;0.00;0.00;;;;;18.39;43.22;98330.50;6084889;22;102502;-96
2021/05/27 09:23:30;;;;;;;;;1.00;0.00;;;;;18.38;43.81;98378.13;6149980;22;101854;-96
2021/05/27 09:26:12;;;;;;;;;0.00;0.00;;;;;18.43;43.87;98391.88;6209123;22;102578;-96
2021/05/27 09:28:40;;;;;;;;;0.00;0.00;;;;;18.45;43.86;98387.00;6216082;22;103179;-96
2021/05/27 09:31:10;;;;;;;;;0.00;0.00;;;;;18.42;43.43;98353.78;6260701;22;101629;-96
2021/05/27 09:33:43;;;;;;;;;0.00;0.00;;;;;18.43;43.31;98367.25;6238365;22;101905;-96
2021/05/27 09:36:17;;;;;;;;;0.00;0.00;;;;;18.35;43.53;98388.78;6269039;22;107423;-96
